Wheeler Sack Army Air Field
KGTB : now visible

Aeroporto :











RITROVATECI SU...

 
LOGIN :

Iscrizione | Disclaimer

   EN    FR    IT 

 









Sommario :    VFR   VFR Marginale   IFR   IFR Intensivo   IFR Molto Intensivo
Visibilità : 
Base nubi : 
>= 8 km
>= 3000ft
5 / 8 km
1000 / 3000 ft
1500m / 5 km
500 / 1000 ft
800 / 1500m
200 / 500 ft
< 800m
< 200 ft
Simboli :   Temporali  Nebbia  Neve Forte  Precipitazioni Forti  Vento > 20 kt







- Altitudine del aeroporto : 688 ft


KGTB - Wheeler Sack Army Air Field

ULTIMO METAR :
  • 222056Z AUTO 03009KT 10SM HZ CLR 17/07 A3013 RMK AO2 VIS 2 1/4 RWY21 SLP205 T01710074 57018

METARs OBSOLETI :
  • 222036Z AUTO 01006KT 10SM HZ FEW037 17/08 A3014 RMK AO2 VIS 2 1/4 RWY21 SLP208
  • 222026Z COR 01006KT 10SM FEW037 17/08 A3014 RMK AO2A SLP208 COR 2029
  • 222016Z COR 03007KT 10SM SCT036 17/08 A3015 RMK AO2A SLP212 COR 2023
  • 222006Z AUTO 02008KT 2 1/4SM HZ BKN035 17/08 A3015 RMK AO2 SLP212
  • 221956Z AUTO 36008KT 2 1/2SM HZ BKN034 16/08 A3015 RMK AO2 SLP212 T01620079
  • 221936Z AUTO 30003KT 2 1/2SM HZ FEW032 16/08 A3015 RMK AO2 VIS 2 1/2V3 SLP212
  • 221906Z AUTO 35009KT 2 1/4SM HZ FEW031 16/08 A3016 RMK AO2 SLP215
  • 221856Z AUTO 00000KT 2 1/2SM HZ CLR 16/08 A3016 RMK AO2 VIS 2 1/2V5 SLP215 T01560076

TAF TAF KGTB
Valido dal 22 a 17 ore il 23 a 23 ore UTC


221700Z 2217/2323 02009KT 9999 OVC022 QNH3012INS
BECMG 2221/2222 04006KT 9999 SCT060 QNH3010INS
BECMG 2305/2306 06006KT 9999 BKN080 QNH3009INS
BECMG 2316/2317 18009KT 9999 BKN050 QNH2995INS
BECMG 2322/2323 20006KT 9000 -SHRA BKN010 QNH2972INS TX21/2317Z TN07/2310Z
FIR KZBW / America del Nord



MetMap, La meteo Aeronautica in un colpo d'occhio ! - Copyright ORBIFLY Dicembre 2007 - Disclaimer

ORBIFLY MET'MAP TEAM :

Programmazione e sviluppo : Alexandra Zaïnal
Concezione e sviluppo : Baudouin d'Aumeries
Co-Programmazione e sviluppo : Marc-Olivier Méhu
Supporto tecnico e logistico : Manuel Goepfert
Aiuto per la traduzione : Arnaldo La Scala

Contatto : metmap@orbifly.com




FONTI E CREDITI :

   NOAA       Earth
Advisory